Time;durP1;ratioP1;P1;durP2;ratioP2;P2;SDS_P1;SDS_P2;PMS_P1;PMS_P2;Temp;Humidity;BMP_temperature;BMP_pressure;BME280_temperature;BME280_humidity;BME280_pressure;Samples;Min_cycle;Max_cycle;Signal;HPM_P1;HPM_P2
2022/04/21 00:00:17;;;;;;;1.98;0.50;;;25.90;26.40;;;;;;5063581;28;20149;-51
2022/04/21 00:02:44;;;;;;;1.20;0.30;;;25.90;26.50;;;;;;5064443;28;20467;-53
2022/04/21 00:05:13;;;;;;;2.45;0.38;;;25.90;26.60;;;;;;5060521;28;20124;-54
2022/04/21 00:07:40;;;;;;;16.92;1.15;;;25.80;26.40;;;;;;5056896;28;20466;-54
2022/04/21 00:10:08;;;;;;;8.60;0.35;;;25.90;26.40;;;;;;5062736;28;20032;-52
2022/04/21 00:12:36;;;;;;;15.43;0.77;;;25.90;26.40;;;;;;5062634;28;20033;-48
2022/04/21 00:15:06;;;;;;;5.70;1.05;;;25.80;26.30;;;;;;5063363;28;20045;-59
2022/04/21 00:17:34;;;;;;;12.82;1.58;;;25.90;26.50;;;;;;5061368;28;20036;-65
2022/04/21 00:20:01;;;;;;;7.53;0.75;;;25.90;26.50;;;;;;5063237;28;20047;-51
2022/04/21 00:25:13;;;;;;;10.23;0.75;;;25.80;26.70;;;;;;5060151;28;20167;-53
2022/04/21 00:27:41;;;;;;;15.60;1.58;;;25.80;26.60;;;;;;5062258;28;20040;-56
2022/04/21 00:30:11;;;;;;;9.27;1.58;;;25.80;26.80;;;;;;5061741;28;20044;-52
2022/04/21 00:32:39;;;;;;;4.85;1.08;;;25.80;25.50;;;;;;5043669;28;20477;-51
2022/04/21 00:35:08;;;;;;;3.13;0.52;;;25.60;25.00;;;;;;5057433;28;20047;-54
2022/04/21 00:37:44;;;;;;;4.15;1.02;;;25.40;24.90;;;;;;5059776;28;20036;-50
2022/04/21 00:40:13;;;;;;;4.25;0.75;;;25.20;24.90;;;;;;5058828;28;20119;-52
2022/04/21 00:42:40;;;;;;;4.93;0.65;;;24.90;25.10;;;;;;5043135;28;20040;-50
2022/04/21 00:45:10;;;;;;;1.38;0.80;;;24.70;25.30;;;;;;5063503;28;20050;-49
2022/04/21 00:47:40;;;;;;;1.35;0.60;;;24.50;25.40;;;;;;5064732;28;20532;-50
2022/04/21 00:50:10;;;;;;;2.50;0.73;;;24.30;25.60;;;;;;5063908;28;20044;-51
2022/04/21 00:52:39;;;;;;;1.15;0.30;;;24.10;25.80;;;;;;5064641;28;20047;-51
2022/04/21 00:55:07;;;;;;;0.63;0.45;;;23.90;25.90;;;;;;5066877;28;20037;-49
2022/04/21 00:57:35;;;;;;;5.63;0.73;;;23.70;26.00;;;;;;5065685;28;20505;-52
2022/04/21 01:00:04;;;;;;;2.00;0.20;;;23.60;26.10;;;;;;5064713;28;20128;-45
2022/04/21 01:02:49;;;;;;;2.78;0.35;;;23.50;26.30;;;;;;5066936;28;20117;-49
2022/04/21 01:05:18;;;;;;;6.65;0.52;;;23.30;26.40;;;;;;5064337;28;20044;-52
2022/04/21 01:07:46;;;;;;;1.33;0.40;;;23.20;26.50;;;;;;5065709;28;20053;-49
2022/04/21 01:10:13;;;;;;;2.15;0.30;;;23.10;26.60;;;;;;5065139;28;20048;-49
2022/04/21 01:12:43;;;;;;;3.95;0.40;;;23.00;26.60;;;;;;5066123;28;20250;-50
2022/04/21 01:15:10;;;;;;;1.95;0.32;;;22.90;26.70;;;;;;5066008;28;20653;-54
2022/04/21 01:17:40;;;;;;;0.60;0.30;;;22.80;26.80;;;;;;5067080;28;20051;-52
2022/04/21 01:20:09;;;;;;;3.25;0.60;;;22.70;26.80;;;;;;5065493;28;20050;-49
2022/04/21 01:22:37;;;;;;;2.17;0.20;;;22.60;26.90;;;;;;5061934;28;20056;-50
2022/04/21 01:25:06;;;;;;;2.05;0.25;;;22.50;27.00;;;;;;5064724;28;20044;-51
2022/04/21 01:27:37;;;;;;;1.52;0.65;;;22.50;27.10;;;;;;5065778;28;20036;-48
2022/04/21 01:30:06;;;;;;;2.95;0.40;;;22.40;27.20;;;;;;5066164;28;20070;-51
2022/04/21 01:32:35;;;;;;;0.90;0.28;;;22.40;27.30;;;;;;5066520;28;20033;-49
2022/04/21 01:35:05;;;;;;;1.83;0.40;;;22.30;27.30;;;;;;5064555;28;20126;-51
2022/04/21 01:43:03;;;;;;;2.22;0.40;;;22.10;27.30;;;;;;5061265;28;20041;-52
2022/04/21 01:45:30;;;;;;;0.95;0.60;;;22.10;27.40;;;;;;5049137;28;20036;-50
2022/04/21 01:47:57;;;;;;;6.03;0.40;;;22.10;27.40;;;;;;5065985;28;20135;-52
2022/04/21 01:50:25;;;;;;;0.30;0.30;;;22.00;27.40;;;;;;5065437;28;20044;-52
2022/04/21 01:52:53;;;;;;;2.38;0.50;;;22.00;27.50;;;;;;5064823;28;20119;-53
2022/04/21 01:55:21;;;;;;;0.98;0.17;;;22.00;27.50;;;;;;5061064;28;20404;-52
2022/04/21 01:57:48;;;;;;;1.33;0.20;;;21.90;27.40;;;;;;5057054;28;20044;-53
2022/04/21 02:00:16;;;;;;;3.83;0.25;;;21.90;27.50;;;;;;5065320;28;20978;-51
2022/04/21 02:02:43;;;;;;;0.30;0.30;;;21.90;27.50;;;;;;5046898;28;20110;-51
2022/04/21 02:05:10;;;;;;;1.83;0.30;;;21.90;27.60;;;;;;5064781;28;20033;-52
2022/04/21 02:07:41;;;;;;;2.35;0.52;;;21.90;27.70;;;;;;5064728;28;20106;-51
2022/04/21 02:10:09;;;;;;;0.30;0.20;;;21.80;27.70;;;;;;5064624;28;20037;-48
2022/04/21 02:12:37;;;;;;;2.45;0.40;;;21.80;27.70;;;;;;5065592;28;20668;-50
2022/04/21 02:15:06;;;;;;;0.55;0.20;;;21.80;27.80;;;;;;5047117;28;20053;-52
2022/04/21 02:17:35;;;;;;;0.68;0.63;;;21.80;27.90;;;;;;5065366;28;20040;-50
2022/04/21 02:20:03;;;;;;;0.50;0.40;;;21.80;27.90;;;;;;5065058;28;20127;-50
2022/04/21 02:22:30;;;;;;;3.53;0.20;;;21.80;28.00;;;;;;5064774;28;20037;-54
2022/04/21 02:24:57;;;;;;;0.50;0.20;;;21.70;28.00;;;;;;5060770;28;20138;-53
2022/04/21 02:27:24;;;;;;;3.40;0.50;;;21.70;28.00;;;;;;5066856;28;20453;-54
2022/04/21 02:29:54;;;;;;;0.73;0.20;;;21.70;28.10;;;;;;5066305;28;20062;-51
2022/04/21 02:32:21;;;;;;;0.95;0.28;;;21.70;28.10;;;;;;5064835;28;20048;-50
2022/04/21 02:34:49;;;;;;;2.47;0.30;;;21.70;28.10;;;;;;5045963;28;20771;-51
2022/04/21 02:37:16;;;;;;;2.55;0.30;;;21.70;28.00;;;;;;5064550;28;20051;-52
2022/04/21 02:39:43;;;;;;;2.00;0.20;;;21.60;28.10;;;;;;5064370;28;20066;-53
2022/04/21 02:42:10;;;;;;;4.30;1.08;;;21.60;28.00;;;;;;5065030;28;20049;-53
2022/04/21 02:44:38;;;;;;;2.08;0.30;;;21.60;28.00;;;;;;5065678;28;20049;-48
2022/04/21 02:47:07;;;;;;;2.20;0.52;;;21.60;28.10;;;;;;5064262;28;20121;-49
2022/04/21 02:49:36;;;;;;;6.47;0.50;;;21.50;28.10;;;;;;5064327;28;20135;-51
2022/04/21 02:52:05;;;;;;;4.45;0.43;;;21.50;28.10;;;;;;5064383;28;20072;-49
2022/04/21 02:57:23;;;;;;;1.55;0.30;;;21.50;28.10;;;;;;5062748;28;20044;-52
2022/04/21 02:59:51;;;;;;;1.27;0.25;;;21.50;28.20;;;;;;5066283;28;20076;-50
2022/04/21 03:02:21;;;;;;;4.03;0.32;;;21.50;28.30;;;;;;5063831;28;20060;-47
2022/04/21 03:04:49;;;;;;;2.20;0.38;;;21.50;28.40;;;;;;5063403;28;20131;-49
2022/04/21 03:07:17;;;;;;;3.30;0.45;;;21.50;28.50;;;;;;5064163;28;20040;-49
2022/04/21 03:09:44;;;;;;;2.08;0.20;;;21.50;28.50;;;;;;5063392;28;20040;-49
2022/04/21 03:12:12;;;;;;;0.38;0.20;;;21.50;28.40;;;;;;5064587;28;20071;-52
2022/04/21 03:14:40;;;;;;;5.75;0.65;;;21.50;28.50;;;;;;5064911;28;20060;-53
2022/04/21 03:17:08;;;;;;;1.17;0.43;;;21.60;28.50;;;;;;5063860;28;20044;-48
2022/04/21 03:19:38;;;;;;;3.50;0.40;;;21.60;28.60;;;;;;5063360;28;20131;-48
2022/04/21 03:24:50;;;;;;;0.57;0.47;;;21.50;28.30;;;;;;5058192;28;20052;-47
2022/04/21 03:27:17;;;;;;;0.98;0.75;;;21.60;28.30;;;;;;5045640;28;20056;-52
2022/04/21 03:29:44;;;;;;;5.32;0.20;;;21.60;28.20;;;;;;5065402;28;20044;-52
2022/04/21 03:32:13;;;;;;;0.60;0.20;;;21.60;28.20;;;;;;5063798;28;20487;-52
2022/04/21 03:34:42;;;;;;;1.92;0.50;;;21.60;28.10;;;;;;5062653;28;20060;-49
2022/04/21 03:37:10;;;;;;;1.35;0.20;;;21.60;28.10;;;;;;5064066;28;20040;-48
2022/04/21 03:39:38;;;;;;;0.25;0.25;;;21.60;28.00;;;;;;5063359;28;20046;-49
2022/04/21 03:42:06;;;;;;;0.50;0.20;;;21.60;28.00;;;;;;5064174;28;20646;-52
2022/04/21 03:44:33;;;;;;;2.55;0.30;;;21.60;28.00;;;;;;5064334;28;20482;-52
2022/04/21 03:47:01;;;;;;;0.22;0.20;;;21.60;28.10;;;;;;5063554;28;20052;-53
2022/04/21 03:49:28;;;;;;;2.33;0.40;;;21.60;28.00;;;;;;5044927;28;20037;-54
2022/04/21 03:51:57;;;;;;;0.95;0.20;;;21.50;28.00;;;;;;5063726;28;20039;-52
2022/04/21 03:54:26;;;;;;;0.47;0.20;;;21.60;28.00;;;;;;5063007;28;20044;-54
2022/04/21 03:56:54;;;;;;;0.85;0.30;;;21.50;27.80;;;;;;5049537;28;20044;-52
2022/04/21 03:59:23;;;;;;;0.50;0.38;;;21.50;27.80;;;;;;5063321;28;20037;-54
2022/04/21 04:01:51;;;;;;;1.65;0.52;;;21.40;27.70;;;;;;5063719;28;20201;-50
2022/04/21 04:04:18;;;;;;;2.75;0.68;;;21.40;27.80;;;;;;5062690;28;20047;-50
2022/04/21 04:12:15;;;;;;;0.70;0.40;;;21.30;27.90;;;;;;5061218;28;20424;-54
2022/04/21 04:14:42;;;;;;;0.55;0.43;;;21.30;27.90;;;;;;5063968;28;20131;-49
2022/04/21 04:17:10;;;;;;;0.85;0.20;;;21.30;27.80;;;;;;5062710;28;20048;-51
2022/04/21 04:19:37;;;;;;;1.55;0.20;;;21.20;27.80;;;;;;5064245;28;20776;-48
2022/04/21 04:22:06;;;;;;;1.85;0.70;;;21.20;27.90;;;;;;5049425;28;20123;-49
2022/04/21 04:24:34;;;;;;;0.82;0.63;;;21.20;27.80;;;;;;5066457;28;20460;-47
2022/04/21 04:27:01;;;;;;;1.73;0.40;;;21.10;27.80;;;;;;5067829;28;20492;-49
2022/04/21 04:29:28;;;;;;;1.33;0.45;;;21.20;27.80;;;;;;5068945;28;20048;-50
2022/04/21 04:31:57;;;;;;;7.07;0.28;;;21.10;27.80;;;;;;5067199;28;20550;-50
2022/04/21 04:34:24;;;;;;;4.07;1.38;;;21.10;27.80;;;;;;5048297;28;20112;-50
2022/04/21 04:36:51;;;;;;;2.40;0.50;;;21.10;27.70;;;;;;5067215;28;20053;-49
2022/04/21 04:39:18;;;;;;;0.63;0.30;;;21.10;27.70;;;;;;5067068;28;20044;-48
2022/04/21 04:44:32;;;;;;;0.98;0.60;;;21.00;27.70;;;;;;5067234;28;20121;-53
2022/04/21 04:46:58;;;;;;;1.05;0.50;;;21.00;27.70;;;;;;5066162;28;20043;-54
2022/04/21 04:49:25;;;;;;;0.82;0.40;;;21.00;27.80;;;;;;5066553;28;20036;-47
2022/04/21 04:51:52;;;;;;;15.30;1.23;;;20.90;27.60;;;;;;5067175;28;20036;-50
2022/04/21 04:54:19;;;;;;;2.97;0.43;;;20.90;27.60;;;;;;5066219;28;20132;-49
2022/04/21 04:56:48;;;;;;;1.90;0.60;;;20.90;27.60;;;;;;5049873;28;20462;-52
2022/04/21 04:59:16;;;;;;;0.52;0.52;;;20.90;27.70;;;;;;5048528;28;20049;-52
2022/04/21 05:01:45;;;;;;;1.75;0.20;;;20.90;28.20;;;;;;5065988;28;20046;-50
2022/04/21 05:04:14;;;;;;;6.07;0.38;;;20.90;27.70;;;;;;5065839;28;20566;-54
2022/04/21 05:06:42;;;;;;;1.75;0.38;;;20.90;27.60;;;;;;5048336;28;20041;-49
2022/04/21 05:09:11;;;;;;;0.80;0.55;;;20.90;27.70;;;;;;5066673;28;20044;-50
2022/04/21 05:11:38;;;;;;;3.35;0.50;;;20.90;27.70;;;;;;5066921;28;20036;-49
2022/04/21 05:14:08;;;;;;;1.60;0.35;;;20.80;27.70;;;;;;5065692;28;20041;-51
2022/04/21 05:16:36;;;;;;;1.40;0.40;;;20.80;27.70;;;;;;5063007;28;20525;-49
2022/04/21 05:19:04;;;;;;;1.05;0.47;;;20.80;27.70;;;;;;5048306;28;20142;-50
2022/04/21 05:21:33;;;;;;;2.65;0.50;;;20.80;27.70;;;;;;5066161;28;20044;-52
2022/04/21 05:24:01;;;;;;;0.77;0.70;;;20.80;27.70;;;;;;5066569;28;20044;-52
2022/04/21 05:26:31;;;;;;;4.78;0.90;;;20.80;27.70;;;;;;5066151;28;20078;-52
2022/04/21 05:29:00;;;;;;;1.98;0.50;;;20.80;27.80;;;;;;5065906;28;20044;-52
2022/04/21 05:31:28;;;;;;;0.95;0.60;;;20.70;27.70;;;;;;5064836;28;20051;-53
2022/04/21 05:33:55;;;;;;;3.90;0.98;;;20.70;27.80;;;;;;5065498;28;20057;-48
2022/04/21 05:36:23;;;;;;;4.25;0.35;;;20.70;27.90;;;;;;5064152;28;20053;-54
2022/04/21 05:38:51;;;;;;;0.63;0.60;;;20.80;28.00;;;;;;5066741;28;20119;-54
2022/04/21 05:41:18;;;;;;;1.08;0.30;;;20.70;27.90;;;;;;5064903;28;20036;-49
2022/04/21 05:43:50;;;;;;;3.45;0.68;;;20.80;27.90;;;;;;5065133;28;20048;-53
2022/04/21 05:46:17;;;;;;;1.80;0.85;;;20.80;27.90;;;;;;5062375;28;20044;-50
2022/04/21 05:48:46;;;;;;;1.08;0.38;;;20.80;27.90;;;;;;5065159;28;20044;-50
2022/04/21 05:51:15;;;;;;;0.60;0.38;;;20.80;27.90;;;;;;5065459;28;20049;-53
2022/04/21 05:53:48;;;;;;;0.95;0.68;;;20.80;27.90;;;;;;5066744;28;20044;-48
2022/04/21 05:56:16;;;;;;;1.25;0.50;;;20.80;28.00;;;;;;5053281;28;20155;-50
2022/04/21 05:58:43;;;;;;;3.25;1.02;;;20.80;28.10;;;;;;5058167;28;20067;-51
2022/04/21 06:01:11;;;;;;;1.83;0.63;;;20.90;28.20;;;;;;5063000;28;20048;-49
2022/04/21 06:03:39;;;;;;;1.25;0.77;;;20.90;28.20;;;;;;5064550;28;20072;-51
2022/04/21 06:06:09;;;;;;;1.10;0.50;;;21.00;28.30;;;;;;5064797;28;20040;-49
2022/04/21 06:08:36;;;;;;;4.40;1.13;;;21.00;28.30;;;;;;5062687;28;20167;-54
2022/04/21 06:11:04;;;;;;;1.30;0.98;;;21.10;28.30;;;;;;5063415;28;20040;-51
2022/04/21 06:13:31;;;;;;;2.65;0.32;;;21.10;28.50;;;;;;5061113;28;20744;-52
2022/04/21 06:15:59;;;;;;;2.20;0.43;;;21.10;28.20;;;;;;5063686;28;20525;-50
2022/04/21 06:18:27;;;;;;;2.90;0.65;;;21.20;28.30;;;;;;5063921;28;20052;-52
2022/04/21 06:20:55;;;;;;;3.90;0.40;;;21.20;28.20;;;;;;5068367;28;20911;-50
2022/04/21 06:23:24;;;;;;;2.25;0.68;;;21.20;28.10;;;;;;5063473;28;20132;-50
2022/04/21 06:25:58;;;;;;;3.53;0.68;;;21.30;28.20;;;;;;5062970;28;20055;-51
2022/04/21 06:28:26;;;;;;;2.10;0.40;;;21.30;28.20;;;;;;5064272;28;20125;-50
2022/04/21 06:30:53;;;;;;;0.73;0.25;;;21.30;28.40;;;;;;5066951;28;20102;-59
2022/04/21 06:33:20;;;;;;;1.60;0.20;;;21.50;28.90;;;;;;5068236;28;20042;-58
2022/04/21 06:35:48;;;;;;;7.60;1.65;;;21.70;29.40;;;;;;5071013;28;20134;-58
2022/04/21 06:38:15;;;;;;;6.57;1.25;;;22.00;30.10;;;;;;5068361;28;20512;-53
2022/04/21 06:40:43;;;;;;;24.92;0.75;;;22.20;30.00;;;;;;5066884;28;20094;-56
2022/04/21 06:48:42;;;;;;;7.20;0.35;;;22.90;30.50;;;;;;5060132;28;20060;-60
2022/04/21 06:51:09;;;;;;;14.73;0.57;;;23.10;30.50;;;;;;5052261;28;20511;-60
2022/04/21 06:53:36;;;;;;;7.53;1.20;;;23.20;30.50;;;;;;5038282;28;20057;-60
2022/04/21 06:56:05;;;;;;;13.38;1.02;;;23.30;30.50;;;;;;5055896;28;20060;-58
2022/04/21 06:58:32;;;;;;;7.07;0.68;;;23.50;30.60;;;;;;5059695;28;20123;-60
2022/04/21 07:00:59;;;;;;;5.20;0.90;;;23.50;30.50;;;;;;5067279;28;20040;-60
2022/04/21 07:03:27;;;;;;;1.50;0.30;;;23.60;30.50;;;;;;5066877;28;20110;-61
2022/04/21 07:05:55;;;;;;;8.43;0.52;;;23.70;30.50;;;;;;5069021;28;20058;-61
2022/04/21 07:08:22;;;;;;;6.45;0.32;;;23.90;30.50;;;;;;5048997;28;20080;-62
2022/04/21 07:10:49;;;;;;;4.32;1.15;;;23.90;30.40;;;;;;5066863;28;20045;-61
2022/04/21 07:13:17;;;;;;;6.07;0.57;;;24.00;30.40;;;;;;5066921;28;20575;-61
2022/04/21 07:15:44;;;;;;;11.55;0.47;;;24.00;30.30;;;;;;5067001;28;20051;-61
2022/04/21 07:18:13;;;;;;;2.78;0.20;;;24.10;30.30;;;;;;5067079;28;20151;-61
2022/04/21 07:20:40;;;;;;;2.38;0.60;;;24.10;30.20;;;;;;5068580;28;20044;-61
2022/04/21 07:23:07;;;;;;;3.22;0.20;;;24.10;30.00;;;;;;5066702;28;20037;-61
2022/04/21 07:25:34;;;;;;;4.80;0.40;;;24.20;30.00;;;;;;5066837;28;20040;-61
2022/04/21 07:28:01;;;;;;;12.20;0.47;;;24.30;30.00;;;;;;5066875;28;20523;-61
2022/04/21 07:30:30;;;;;;;3.35;0.52;;;24.40;30.00;;;;;;5063468;28;20386;-61
2022/04/21 07:32:57;;;;;;;1.90;0.70;;;24.40;30.00;;;;;;5064424;28;20393;-62
2022/04/21 07:35:24;;;;;;;5.07;1.50;;;24.40;29.90;;;;;;5067068;28;20041;-60
2022/04/21 07:37:51;;;;;;;2.90;0.60;;;24.40;29.80;;;;;;5066673;28;20603;-61
2022/04/21 07:40:20;;;;;;;1.98;0.50;;;24.50;29.80;;;;;;5065930;28;20040;-60
2022/04/21 07:42:47;;;;;;;1.70;0.77;;;24.50;29.70;;;;;;5066732;28;20045;-63
2022/04/21 07:45:14;;;;;;;1.92;0.65;;;24.60;29.70;;;;;;5067156;28;20032;-60
2022/04/21 07:47:43;;;;;;;3.45;0.40;;;24.60;29.70;;;;;;5066359;28;20406;-62
2022/04/21 07:50:10;;;;;;;4.22;0.52;;;24.60;29.70;;;;;;5066598;28;20463;-62
2022/04/21 07:55:24;;;;;;;1.63;0.50;;;24.60;29.70;;;;;;5063487;28;20036;-60
2022/04/21 07:57:53;;;;;;;3.38;0.50;;;24.70;29.70;;;;;;5064871;28;20040;-60
2022/04/21 08:00:21;;;;;;;3.20;0.85;;;24.70;29.60;;;;;;5066355;28;20037;-60
2022/04/21 08:02:50;;;;;;;6.18;0.60;;;24.70;29.60;;;;;;5068117;28;20044;-60
2022/04/21 08:05:19;;;;;;;3.45;0.73;;;24.70;29.50;;;;;;5066192;28;20078;-61
2022/04/21 08:07:46;;;;;;;1.75;0.47;;;24.80;29.50;;;;;;5066708;28;20059;-62
2022/04/21 08:10:14;;;;;;;5.60;0.80;;;24.80;29.50;;;;;;5065878;28;20162;-61
2022/04/21 08:12:43;;;;;;;0.90;0.90;;;24.80;29.40;;;;;;5066325;28;20528;-62
2022/04/21 08:15:12;;;;;;;3.92;0.82;;;24.90;29.40;;;;;;5066509;28;20049;-62
2022/04/21 08:17:40;;;;;;;1.98;1.08;;;24.90;29.40;;;;;;5067423;28;20599;-62
2022/04/21 08:20:10;;;;;;;3.30;0.77;;;24.90;29.40;;;;;;5066290;28;20071;-61
2022/04/21 08:22:38;;;;;;;1.02;0.70;;;24.90;29.40;;;;;;5043633;28;20041;-62
2022/04/21 08:33:20;;;;;;;2.78;1.58;;;24.90;29.30;;;;;;5066074;28;20505;-62
2022/04/21 08:35:49;;;;;;;1.17;0.75;;;25.00;29.30;;;;;;5068082;28;20044;-62
2022/04/21 08:38:17;;;;;;;1.73;0.70;;;25.00;29.30;;;;;;5065723;28;20048;-61
2022/04/21 08:40:51;;;;;;;2.28;0.80;;;25.00;29.30;;;;;;5065462;28;20043;-61
2022/04/21 08:43:18;;;;;;;2.78;1.55;;;25.00;29.20;;;;;;5048364;28;20454;-62
2022/04/21 08:45:48;;;;;;;1.45;0.68;;;25.10;29.20;;;;;;5066097;28;20044;-62
2022/04/21 08:48:16;;;;;;;2.08;1.30;;;25.00;29.20;;;;;;5066396;28;20033;-62
2022/04/21 08:50:44;;;;;;;4.47;1.30;;;25.10;29.10;;;;;;5066200;28;20040;-58
2022/04/21 08:53:16;;;;;;;2.80;1.20;;;25.00;29.10;;;;;;5065930;28;20646;-61
2022/04/21 08:55:44;;;;;;;2.78;1.83;;;25.10;29.10;;;;;;5065758;28;20090;-62
2022/04/21 08:58:11;;;;;;;3.08;1.25;;;25.10;29.10;;;;;;5047995;28;20060;-62
2022/04/21 09:00:39;;;;;;;2.50;1.30;;;25.10;29.10;;;;;;5066274;28;20036;-61
2022/04/21 09:03:08;;;;;;;3.38;1.70;;;25.10;29.10;;;;;;5066340;28;20128;-62
2022/04/21 09:05:36;;;;;;;2.50;1.15;;;25.10;29.10;;;;;;5069361;28;20079;-61
2022/04/21 09:08:04;;;;;;;4.47;1.50;;;25.10;29.20;;;;;;5069549;28;20580;-59
2022/04/21 09:10:34;;;;;;;1.83;0.65;;;25.10;29.10;;;;;;5067481;28;20125;-62
2022/04/21 09:13:03;;;;;;;2.45;0.88;;;25.20;29.10;;;;;;5069878;28;20040;-61
2022/04/21 09:15:31;;;;;;;1.35;0.82;;;25.20;29.10;;;;;;5054005;28;20047;-62
2022/04/21 09:18:00;;;;;;;2.97;1.10;;;25.20;29.00;;;;;;5067182;28;20028;-62
2022/04/21 09:20:30;;;;;;;2.15;0.75;;;25.20;29.00;;;;;;5070664;28;20979;-62
2022/04/21 09:23:00;;;;;;;3.47;0.82;;;25.20;29.00;;;;;;5068820;28;20160;-61
2022/04/21 09:25:28;;;;;;;2.35;0.82;;;25.20;29.00;;;;;;5069284;28;20144;-61
2022/04/21 09:27:58;;;;;;;2.22;0.68;;;25.20;29.10;;;;;;5069108;28;20501;-62
2022/04/21 09:30:26;;;;;;;1.05;0.77;;;25.30;29.10;;;;;;5069065;28;20805;-61
2022/04/21 09:32:55;;;;;;;7.00;0.85;;;25.30;29.00;;;;;;5071170;28;20032;-62
2022/04/21 09:35:26;;;;;;;2.80;1.13;;;25.30;29.10;;;;;;5069243;28;20044;-61
2022/04/21 09:37:55;;;;;;;2.83;1.27;;;25.30;29.10;;;;;;5068902;28;20037;-62
2022/04/21 09:40:23;;;;;;;1.40;0.82;;;25.30;29.20;;;;;;5069381;28;20045;-61
2022/04/21 09:43:00;;;;;;;1.02;0.65;;;25.30;29.10;;;;;;5068752;28;20048;-61
2022/04/21 09:48:20;;;;;;;1.75;0.88;;;25.30;29.00;;;;;;5067175;28;20086;-61
2022/04/21 09:50:52;;;;;;;0.52;0.52;;;25.30;29.00;;;;;;5064653;28;20578;-61
2022/04/21 09:53:20;;;;;;;1.83;0.85;;;25.30;29.10;;;;;;5069323;28;20036;-62
2022/04/21 09:55:49;;;;;;;1.88;0.47;;;25.30;29.20;;;;;;5062816;28;20037;-61
2022/04/21 09:58:19;;;;;;;0.60;0.52;;;25.40;29.20;;;;;;5059466;28;20086;-61
2022/04/21 10:00:46;;;;;;;1.77;0.40;;;25.40;29.10;;;;;;5069170;28;20040;-61
2022/04/21 10:03:14;;;;;;;0.60;0.60;;;25.40;29.00;;;;;;5069073;28;20493;-61
2022/04/21 10:05:42;;;;;;;0.68;0.30;;;25.40;29.10;;;;;;5054271;28;20049;-61
2022/04/21 10:08:11;;;;;;;0.93;0.35;;;25.40;29.10;;;;;;5066379;28;20090;-61
2022/04/21 10:10:40;;;;;;;0.77;0.57;;;25.40;29.20;;;;;;5068821;28;20082;-61
2022/04/21 10:13:08;;;;;;;1.88;0.57;;;25.50;29.20;;;;;;5067513;28;20520;-61
2022/04/21 10:15:36;;;;;;;1.50;0.50;;;25.50;29.20;;;;;;5068713;28;20033;-62
2022/04/21 10:18:07;;;;;;;1.02;0.40;;;25.50;29.30;;;;;;5068525;28;20048;-61
2022/04/21 10:20:35;;;;;;;0.40;0.38;;;25.50;29.20;;;;;;5068743;28;20049;-61
2022/04/21 10:23:03;;;;;;;3.03;0.77;;;25.50;29.20;;;;;;5063060;28;20398;-62
2022/04/21 10:25:38;;;;;;;0.38;0.38;;;25.50;29.20;;;;;;5060880;28;20044;-61
2022/04/21 10:28:40;;;;;;;0.20;0.10;;;25.60;29.30;;;;;;5067945;28;20570;-60
2022/04/21 10:31:32;;;;;;;0.90;0.20;;;25.60;29.30;;;;;;5068476;28;20136;-61
2022/04/21 10:34:04;;;;;;;0.57;0.20;;;25.60;29.30;;;;;;5068426;28;20042;-62
2022/04/21 10:36:41;;;;;;;0.82;0.35;;;25.60;29.30;;;;;;5052083;28;20075;-61
2022/04/21 10:39:27;;;;;;;0.73;0.30;;;25.60;29.30;;;;;;5065878;28;20044;-61
2022/04/21 10:42:21;;;;;;;0.57;0.30;;;25.60;29.30;;;;;;5051672;28;20056;-61
2022/04/21 10:44:50;;;;;;;1.67;1.08;;;25.70;29.30;;;;;;5007499;28;20066;-61
2022/04/21 10:47:36;;;;;;;1.98;0.20;;;25.60;29.30;;;;;;5006036;28;20056;-61
2022/04/21 10:50:13;;;;;;;0.22;0.20;;;25.70;29.40;;;;;;5005148;28;20129;-61
2022/04/21 10:58:49;;;;;;;0.70;0.15;;;25.70;29.40;;;;;;4995820;28;20045;-61
2022/04/21 11:01:23;;;;;;;2.78;0.20;;;25.70;29.40;;;;;;5005689;28;20053;-61
2022/04/21 11:04:09;;;;;;;1.05;0.13;;;25.70;29.50;;;;;;5004987;28;20042;-61
2022/04/21 11:06:40;;;;;;;1.30;0.40;;;25.80;29.50;;;;;;4990542;28;20129;-62
2022/04/21 11:09:08;;;;;;;0.30;0.20;;;25.70;29.50;;;;;;5006162;28;20518;-61
2022/04/21 11:11:47;;;;;;;0.10;0.10;;;25.80;29.50;;;;;;5005791;28;20507;-61
2022/04/21 11:14:31;;;;;;;0.30;0.30;;;25.80;29.50;;;;;;5000881;28;20050;-61
2022/04/21 11:16:59;;;;;;;0.20;0.20;;;25.80;29.50;;;;;;4996681;28;20558;-61
2022/04/21 11:19:36;;;;;;;0.85;0.10;;;25.80;29.50;;;;;;5005355;28;20146;-60
2022/04/21 11:22:05;;;;;;;0.38;0.20;;;25.90;29.60;;;;;;5067185;28;20056;-61
2022/04/21 11:25:12;;;;;;;0.28;0.20;;;25.90;29.60;;;;;;5051821;28;20066;-61
2022/04/21 11:27:45;;;;;;;0.40;0.10;;;26.00;29.50;;;;;;5048936;28;20036;-60
2022/04/21 11:30:14;;;;;;;2.30;0.32;;;26.00;29.60;;;;;;5067167;28;20072;-60
2022/04/21 11:32:49;;;;;;;0.20;0.20;;;26.00;29.60;;;;;;5068320;28;20037;-60
2022/04/21 11:35:18;;;;;;;;;;;26.00;29.50;;;;;;5066998;28;20060;-60
2022/04/21 11:37:57;;;;;;;1.13;0.17;;;26.00;29.50;;;;;;5066849;28;19920;-60
2022/04/21 11:40:29;;;;;;;0.10;0.10;;;26.00;29.50;;;;;;5066602;28;20037;-60
2022/04/21 11:42:58;;;;;;;0.98;0.10;;;26.00;29.50;;;;;;5048740;28;20102;-60
2022/04/21 11:45:27;;;;;;;0.13;0.13;;;26.10;29.50;;;;;;5066452;28;20040;-60
2022/04/21 11:47:54;;;;;;;0.85;0.20;;;26.10;29.50;;;;;;5068318;28;20059;-60
2022/04/21 11:50:25;;;;;;;2.33;0.10;;;26.20;29.50;;;;;;5066330;28;20050;-61
2022/04/21 11:52:55;;;;;;;0.30;0.20;;;26.20;29.50;;;;;;5066785;28;20054;-61
2022/04/21 11:55:24;;;;;;;0.10;0.10;;;26.30;29.50;;;;;;5064153;28;20584;-60
2022/04/21 11:57:51;;;;;;;0.10;0.10;;;26.30;29.50;;;;;;5053512;28;20048;-61
2022/04/21 12:06:28;;;;;;;1.30;0.10;;;26.40;29.50;;;;;;5066469;28;20102;-59
2022/04/21 12:08:47;;;;;;;0.17;0.10;;;26.40;29.40;;;;;;5068298;28;20041;-60
2022/04/21 12:11:17;;;;;;;0.43;0.30;;;26.50;29.40;;;;;;5066203;28;20098;-59
2022/04/21 12:13:45;;;;;;;1.55;0.10;;;26.50;29.40;;;;;;5066129;28;20052;-61
2022/04/21 12:16:35;;;;;;;0.68;0.10;;;26.60;29.40;;;;;;5065910;28;20777;-60
2022/04/21 12:19:13;;;;;;;0.20;0.10;;;26.60;29.30;;;;;;5066224;28;20040;-60
2022/04/21 12:21:43;;;;;;;0.10;0.10;;;26.70;29.40;;;;;;5051946;28;20039;-60
2022/04/21 12:24:12;;;;;;;1.45;0.10;;;26.70;29.40;;;;;;5066473;28;20051;-60
2022/04/21 12:26:40;;;;;;;0.20;0.10;;;26.70;29.30;;;;;;5067659;28;20114;-60
2022/04/21 12:29:08;;;;;;;0.10;0.10;;;26.80;29.30;;;;;;5066562;28;20041;-60
2022/04/21 12:31:43;;;;;;;0.20;0.10;;;26.80;29.30;;;;;;5044564;28;20037;-60
2022/04/21 12:34:12;;;;;;;0.20;0.17;;;26.90;29.30;;;;;;5055328;28;20525;-60
2022/04/21 12:36:51;;;;;;;0.10;0.10;;;26.90;29.20;;;;;;5066375;28;20033;-62
2022/04/21 12:39:19;;;;;;;1.63;0.20;;;27.00;29.20;;;;;;5066212;28;20505;-59
2022/04/21 12:41:46;;;;;;;0.25;0.10;;;27.00;29.20;;;;;;5071783;28;20051;-60
2022/04/21 12:44:15;;;;;;;0.20;0.17;;;27.10;29.20;;;;;;5070253;28;20501;-63
2022/04/21 12:46:42;;;;;;;0.50;0.25;;;27.20;29.20;;;;;;5069800;28;20044;-63
2022/04/21 12:49:09;;;;;;;0.20;0.20;;;27.20;29.20;;;;;;5051841;28;20064;-61
2022/04/21 12:51:36;;;;;;;0.10;0.10;;;27.20;29.10;;;;;;5070329;28;20050;-60
2022/04/21 12:54:04;;;;;;;0.10;0.10;;;27.30;29.10;;;;;;5053294;28;20040;-60
2022/04/21 12:56:36;;;;;;;0.20;0.10;;;27.30;28.70;;;;;;5058542;28;20567;-60
2022/04/21 12:59:04;;;;;;;0.10;0.10;;;27.40;29.10;;;;;;5066645;28;20127;-60
2022/04/21 13:01:31;;;;;;;0.55;0.20;;;27.40;29.10;;;;;;5069570;28;20409;-60
2022/04/21 13:04:01;;;;;;;0.10;0.10;;;27.50;29.10;;;;;;5069947;28;20093;-61
2022/04/21 13:06:29;;;;;;;0.32;0.32;;;27.60;29.00;;;;;;5069749;28;20045;-63
2022/04/21 13:08:57;;;;;;;0.10;0.10;;;27.60;29.00;;;;;;5071562;28;20707;-63
2022/04/21 13:11:26;;;;;;;0.55;0.10;;;27.70;29.00;;;;;;5069556;28;20056;-62
2022/04/21 13:13:54;;;;;;;0.30;0.10;;;27.70;29.00;;;;;;5069245;28;20041;-60
2022/04/21 13:16:21;;;;;;;0.40;0.10;;;27.80;29.00;;;;;;5069243;28;20044;-60
2022/04/21 13:18:48;;;;;;;0.20;0.10;;;27.80;28.90;;;;;;5069507;28;20128;-61
2022/04/21 13:24:00;;;;;;;0.10;0.10;;;28.00;28.90;;;;;;5062395;28;20056;-60
2022/04/21 13:26:29;;;;;;;0.20;0.10;;;28.00;28.90;;;;;;5069754;28;20102;-61
2022/04/21 13:28:58;;;;;;;0.80;0.10;;;28.10;28.90;;;;;;5068569;28;20055;-61
2022/04/21 13:34:10;;;;;;;0.30;0.10;;;28.20;28.90;;;;;;5068589;28;20055;-60
2022/04/21 13:36:38;;;;;;;1.02;0.10;;;28.20;28.80;;;;;;5069510;28;20523;-61
2022/04/21 13:39:05;;;;;;;0.10;0.10;;;28.30;28.80;;;;;;5035767;28;20543;-61
2022/04/21 13:41:33;;;;;;;0.50;0.10;;;28.30;28.80;;;;;;5069476;28;20505;-61
2022/04/21 13:44:00;;;;;;;0.68;0.25;;;28.40;28.80;;;;;;5068581;28;20084;-61
2022/04/21 13:46:28;;;;;;;0.10;0.05;;;28.40;28.80;;;;;;5068569;28;20055;-61
2022/04/21 13:48:57;;;;;;;1.23;0.10;;;28.50;28.80;;;;;;5068783;28;20040;-61
2022/04/21 13:51:24;;;;;;;0.30;0.20;;;28.50;28.70;;;;;;5069063;28;20042;-57
2022/04/21 13:53:52;;;;;;;0.75;0.10;;;28.50;28.70;;;;;;5070464;28;20140;-62